createdAt,value
2024-02-12T00:01:30.922Z,10.52
2024-02-12T00:04:04.934Z,10.49
2024-02-12T00:06:39.495Z,10.47
2024-02-12T00:09:11.347Z,10.46
2024-02-12T00:11:45.198Z,10.46
2024-02-12T00:14:18.743Z,10.44
2024-02-12T00:16:50.025Z,10.43
2024-02-12T00:19:19.009Z,10.43
2024-02-12T00:21:50.112Z,10.43
2024-02-12T00:24:22.803Z,10.42
2024-02-12T00:26:52.984Z,10.42
2024-02-12T00:29:27.952Z,10.41
2024-02-12T00:31:59.753Z,10.43
2024-02-12T00:34:30.040Z,10.42
2024-02-12T00:37:05.312Z,10.43
2024-02-12T00:39:34.069Z,10.43
2024-02-12T00:42:13.846Z,10.42
2024-02-12T00:44:45.706Z,10.43
2024-02-12T00:47:17.746Z,10.42
2024-02-12T00:50:00.797Z,10.43
2024-02-12T00:52:29.815Z,10.45
2024-02-12T00:55:15.280Z,10.45
2024-02-12T00:57:52.775Z,10.46
2024-02-12T01:00:38.227Z,10.47
2024-02-12T01:03:23.731Z,10.47
2024-02-12T01:05:54.691Z,10.47
2024-02-12T01:08:54.479Z,10.48
2024-02-12T01:11:25.654Z,10.48
2024-02-12T01:14:01.314Z,10.48
2024-02-12T01:16:47.496Z,10.47
2024-02-12T01:19:19.013Z,10.47
2024-02-12T01:22:02.679Z,10.46
2024-02-12T01:24:44.481Z,10.47
2024-02-12T01:27:19.745Z,10.48
2024-02-12T01:29:53.272Z,10.48
2024-02-12T01:32:53.394Z,10.47
2024-02-12T01:35:38.673Z,10.46
2024-02-12T01:38:14.130Z,10.44
2024-02-12T01:40:56.142Z,10.42
2024-02-12T01:43:44.722Z,10.41
2024-02-12T01:46:25.211Z,10.38
2024-02-12T01:49:19.787Z,10.37
2024-02-12T01:52:06.844Z,10.36
2024-02-12T01:54:43.546Z,10.34
2024-02-12T01:57:15.678Z,10.33
2024-02-12T01:59:47.442Z,10.33
2024-02-12T02:02:23.967Z,10.33
2024-02-12T02:05:11.000Z,10.32
2024-02-12T02:07:58.702Z,10.31
2024-02-12T02:10:41.072Z,10.31
2024-02-12T02:13:19.557Z,10.31
2024-02-12T02:16:04.425Z,10.31
2024-02-12T02:18:33.100Z,10.32
2024-02-12T02:21:01.980Z,10.32
2024-02-12T02:23:45.336Z,10.33
2024-02-12T02:26:27.866Z,10.33
2024-02-12T02:29:02.733Z,10.33
2024-02-12T02:31:33.406Z,10.32
2024-02-12T02:34:03.763Z,10.32
2024-02-12T02:36:45.308Z,10.33
2024-02-12T02:39:21.568Z,10.34
2024-02-12T02:42:16.517Z,10.34
2024-02-12T02:44:49.547Z,10.33
2024-02-12T02:47:22.963Z,10.32
2024-02-12T02:49:53.175Z,10.30
2024-02-12T02:52:23.856Z,10.30
2024-02-12T02:54:51.925Z,10.29
2024-02-12T02:57:20.013Z,10.28
2024-02-12T02:59:48.512Z,10.28
2024-02-12T03:02:32.708Z,10.27
2024-02-12T03:05:06.270Z,10.26
2024-02-12T03:07:37.770Z,10.26
2024-02-12T03:10:15.818Z,10.25
2024-02-12T03:12:51.498Z,10.24
2024-02-12T03:15:49.590Z,10.24
2024-02-12T03:18:49.561Z,10.24
2024-02-12T03:21:22.098Z,10.25
2024-02-12T03:24:08.742Z,10.25
2024-02-12T03:26:38.939Z,10.25
2024-02-12T03:29:14.151Z,10.25
2024-02-12T03:31:43.862Z,10.26
2024-02-12T03:34:33.077Z,10.27
2024-02-12T03:37:10.600Z,10.28
2024-02-12T03:40:05.971Z,10.28
2024-02-12T03:42:34.153Z,10.27
2024-02-12T03:45:06.924Z,10.26
2024-02-12T03:47:43.339Z,10.25
2024-02-12T03:50:48.248Z,10.24
2024-02-12T03:53:43.380Z,10.24
2024-02-12T03:56:51.394Z,10.24
2024-02-12T03:59:39.535Z,10.24
2024-02-12T04:02:08.997Z,10.23
2024-02-12T04:04:50.644Z,10.22
2024-02-12T04:07:43.886Z,10.22
2024-02-12T04:10:39.866Z,10.20
2024-02-12T04:13:47.262Z,10.19
2024-02-12T04:19:26.106Z,10.14
2024-02-12T04:21:54.269Z,10.11
2024-02-12T04:24:24.662Z,10.09
2024-02-12T04:26:58.310Z,10.09
2024-02-12T04:29:34.048Z,10.09
2024-02-12T04:32:10.322Z,10.10
2024-02-12T04:34:45.963Z,10.11
2024-02-12T04:37:55.902Z,10.13
2024-02-12T04:40:36.383Z,10.15
2024-02-12T04:47:21.988Z,10.14
2024-02-12T04:49:50.051Z,10.14
2024-02-12T04:52:27.861Z,10.13
2024-02-12T04:55:50.081Z,10.13
2024-02-12T04:58:27.739Z,10.15
2024-02-12T05:14:49.080Z,10.04
2024-02-12T05:17:30.489Z,9.99
2024-02-12T05:20:21.084Z,9.94
2024-02-12T05:23:13.691Z,9.89
2024-02-12T05:26:19.685Z,9.83
2024-02-12T05:28:55.335Z,9.75
2024-02-12T05:31:27.237Z,9.70
2024-02-12T05:33:55.632Z,9.65
2024-02-12T05:36:32.176Z,9.59
2024-02-12T05:39:11.148Z,9.53
2024-02-12T05:41:38.943Z,9.47
2024-02-12T05:44:06.729Z,9.44
2024-02-12T05:46:35.446Z,9.40
2024-02-12T05:49:04.947Z,9.37
2024-02-12T05:51:34.146Z,9.33
2024-02-12T05:54:02.617Z,9.30
2024-02-12T05:56:30.964Z,9.26
2024-02-12T05:58:58.804Z,9.24
2024-02-12T06:01:26.780Z,9.21
2024-02-12T06:03:54.696Z,9.21
2024-02-12T06:06:22.845Z,9.19
2024-02-12T06:08:50.885Z,9.18
2024-02-12T06:11:18.797Z,9.18
2024-02-12T06:13:46.621Z,9.17
2024-02-12T06:16:14.974Z,9.17
2024-02-12T06:18:42.867Z,9.17
2024-02-12T06:21:10.691Z,9.15
2024-02-12T06:23:38.625Z,9.12
2024-02-12T06:26:07.107Z,9.09
2024-02-12T06:28:35.927Z,9.08
2024-02-12T06:31:04.137Z,9.05
2024-02-12T06:33:31.971Z,9.04
2024-02-12T06:36:03.132Z,9.01
2024-02-12T06:38:31.269Z,8.98
2024-02-12T06:41:02.381Z,8.95
2024-02-12T06:43:30.223Z,8.92
2024-02-12T06:45:58.510Z,8.89
2024-02-12T06:48:26.353Z,8.86
2024-02-12T06:50:54.782Z,8.84
2024-02-12T06:53:22.923Z,8.79
2024-02-12T06:55:50.778Z,8.77
2024-02-12T06:58:18.582Z,8.74
2024-02-12T07:00:46.443Z,8.72
2024-02-12T07:03:14.636Z,8.73
2024-02-12T07:05:42.622Z,8.72
2024-02-12T07:08:13.159Z,8.72
2024-02-12T07:10:40.958Z,8.71
2024-02-12T07:13:08.673Z,8.69
2024-02-12T07:15:37.381Z,8.70
2024-02-12T07:18:05.517Z,8.70
2024-02-12T07:20:33.387Z,8.71
2024-02-12T07:23:01.384Z,8.72
2024-02-12T07:25:29.334Z,8.75
2024-02-12T07:27:57.122Z,8.77
2024-02-12T07:30:24.891Z,8.80
2024-02-12T07:32:52.700Z,8.83
2024-02-12T07:35:20.590Z,8.87
2024-02-12T07:37:50.422Z,8.90
2024-02-12T07:40:18.474Z,8.94
2024-02-12T07:42:46.288Z,8.98
2024-02-12T07:45:15.261Z,9.01
2024-02-12T07:47:44.810Z,9.03
2024-02-12T07:50:14.122Z,9.04
2024-02-12T07:52:42.090Z,9.07
2024-02-12T07:55:11.847Z,9.10
2024-02-12T07:57:41.792Z,9.12
2024-02-12T08:00:15.683Z,9.15
2024-02-12T08:02:46.500Z,9.16
2024-02-12T08:05:16.991Z,9.19
2024-02-12T08:07:56.681Z,9.22
2024-02-12T08:10:30.618Z,9.25
2024-02-12T08:12:58.773Z,9.26
2024-02-12T08:15:27.418Z,9.29
2024-02-12T08:17:55.437Z,9.31
2024-02-12T08:20:23.658Z,9.33
2024-02-12T08:22:51.728Z,9.36
2024-02-12T08:25:19.440Z,9.39
2024-02-12T08:27:47.604Z,9.43
2024-02-12T08:30:15.981Z,9.47
2024-02-12T08:32:43.843Z,9.50
2024-02-12T08:35:11.989Z,9.53
2024-02-12T08:37:40.720Z,9.54
2024-02-12T08:40:08.888Z,9.58
2024-02-12T08:42:38.446Z,9.62
2024-02-12T08:45:06.680Z,9.66
2024-02-12T08:47:34.636Z,9.70
2024-02-12T08:50:05.133Z,9.74
2024-02-12T08:52:32.924Z,9.79
2024-02-12T08:55:07.557Z,9.83
2024-02-12T08:57:35.501Z,9.88
2024-02-12T09:00:05.589Z,9.92
2024-02-12T09:02:33.440Z,9.96
2024-02-12T09:05:02.880Z,10.01
2024-02-12T09:07:30.636Z,10.05
2024-02-12T09:09:58.472Z,10.08
2024-02-12T09:12:33.399Z,10.11
2024-02-12T09:15:15.942Z,10.16
2024-02-12T09:17:46.366Z,10.23
2024-02-12T09:20:16.060Z,10.30
2024-02-12T09:22:44.529Z,10.36
2024-02-12T09:25:13.684Z,10.44
2024-02-12T09:27:47.265Z,10.50
2024-02-12T09:30:17.739Z,10.54
2024-02-12T09:32:46.263Z,10.58
2024-02-12T09:35:20.011Z,10.59
2024-02-12T09:37:49.004Z,10.61
2024-02-12T09:40:20.713Z,10.60
2024-02-12T09:42:49.272Z,10.58
2024-02-12T09:45:18.181Z,10.57
2024-02-12T09:47:47.327Z,10.53
2024-02-12T09:50:16.609Z,10.52
2024-02-12T09:52:46.317Z,10.52
2024-02-12T09:55:15.702Z,10.48
2024-02-12T09:57:45.381Z,10.46
2024-02-12T10:00:14.017Z,10.46
2024-02-12T10:02:42.654Z,10.46
2024-02-12T10:05:14.102Z,10.47
2024-02-12T10:07:42.186Z,10.46
2024-02-12T10:10:13.500Z,10.43
2024-02-12T10:12:42.420Z,10.43
2024-02-12T10:15:15.059Z,10.42
2024-02-12T10:17:44.291Z,10.40
2024-02-12T10:20:12.444Z,10.36
2024-02-12T10:22:41.365Z,10.35
2024-02-12T10:25:12.441Z,10.36
2024-02-12T10:27:40.585Z,10.37
2024-02-12T10:30:09.936Z,10.34
2024-02-12T10:32:39.599Z,10.33
2024-02-12T10:35:12.746Z,10.33
2024-02-12T10:37:40.644Z,10.32
2024-02-12T10:40:15.198Z,10.28
2024-02-12T10:42:53.260Z,10.24
2024-02-12T10:45:21.381Z,10.22
2024-02-12T10:47:49.865Z,10.21
2024-02-12T10:50:19.626Z,10.19
2024-02-12T10:52:49.442Z,10.18
2024-02-12T10:55:18.321Z,10.16
2024-02-12T10:57:48.065Z,10.16
2024-02-12T11:03:37.627Z,10.15
2024-02-12T11:06:12.615Z,10.14
2024-02-12T11:08:47.757Z,10.15
2024-02-12T11:11:31.143Z,10.18
2024-02-12T11:14:02.830Z,10.21
2024-02-12T11:16:32.779Z,10.22
2024-02-12T11:19:03.598Z,10.24
2024-02-12T11:21:37.141Z,10.26
2024-02-12T11:24:05.860Z,10.30
2024-02-12T11:26:50.351Z,10.32
2024-02-12T11:29:19.281Z,10.36
2024-02-12T11:31:50.221Z,10.37
2024-02-12T11:34:20.373Z,10.36
2024-02-12T11:36:59.211Z,10.35
2024-02-12T11:39:27.087Z,10.34
2024-02-12T11:41:54.908Z,10.35
2024-02-12T11:44:22.870Z,10.37
2024-02-12T11:46:58.552Z,10.36
2024-02-12T11:49:26.899Z,10.36
2024-02-12T11:51:57.075Z,10.36
2024-02-12T11:54:25.129Z,10.35
2024-02-12T11:56:53.189Z,10.34
2024-02-12T11:59:23.475Z,10.33
2024-02-12T12:01:52.097Z,10.32
2024-02-12T12:04:19.974Z,10.29
2024-02-12T12:06:48.021Z,10.29
2024-02-12T12:09:22.353Z,10.29
2024-02-12T12:11:50.929Z,10.30
2024-02-12T12:14:19.925Z,10.31
2024-02-12T12:17:27.653Z,10.31
2024-02-12T12:19:38.453Z,10.31
2024-02-12T12:22:18.747Z,10.32
2024-02-12T12:24:46.689Z,10.33
2024-02-12T12:27:27.625Z,10.35
2024-02-12T12:29:58.226Z,10.35
2024-02-12T12:32:26.563Z,10.34
2024-02-12T12:34:54.635Z,10.33
2024-02-12T12:37:22.535Z,10.33
2024-02-12T12:39:50.322Z,10.33
2024-02-12T12:42:19.224Z,10.33
2024-02-12T12:44:47.606Z,10.32
2024-02-12T12:47:15.634Z,10.29
2024-02-12T12:49:43.479Z,10.26
2024-02-12T12:52:11.412Z,10.22
2024-02-12T12:54:40.911Z,10.18
2024-02-12T12:57:08.721Z,10.17
2024-02-12T12:59:36.823Z,10.17
2024-02-12T13:02:07.699Z,10.15
2024-02-12T13:04:35.577Z,10.14
2024-02-12T13:07:05.043Z,10.13
2024-02-12T13:09:33.168Z,10.14
2024-02-12T13:12:01.095Z,10.15
2024-02-12T13:14:29.042Z,10.16
2024-02-12T13:16:56.872Z,10.16
2024-02-12T13:19:24.714Z,10.17
2024-02-12T13:21:52.958Z,10.19
2024-02-12T13:24:21.634Z,10.20
2024-02-12T13:26:49.683Z,10.23
2024-02-12T13:29:24.618Z,10.22
2024-02-12T13:31:54.255Z,10.22
2024-02-12T13:34:22.128Z,10.21
2024-02-12T13:36:53.574Z,10.21
2024-02-12T13:39:21.556Z,10.22
2024-02-12T13:41:50.201Z,10.22
2024-02-12T13:44:18.212Z,10.22
2024-02-12T13:46:47.943Z,10.23
2024-02-12T13:49:17.325Z,10.22
2024-02-12T13:51:45.985Z,10.22
2024-02-12T13:54:13.870Z,10.21
2024-02-12T13:56:43.191Z,10.20
2024-02-12T13:59:11.193Z,10.19
2024-02-12T14:01:47.883Z,10.19
2024-02-12T14:04:21.684Z,10.18
2024-02-12T14:06:49.670Z,10.16
2024-02-12T14:09:22.070Z,10.16
2024-02-12T14:11:52.967Z,10.15
2024-02-12T14:14:20.996Z,10.15
2024-02-12T14:16:48.900Z,10.14
2024-02-12T14:19:17.403Z,10.13
2024-02-12T14:21:45.339Z,10.13
2024-02-12T14:24:13.148Z,10.13
2024-02-12T14:26:58.771Z,10.14
2024-02-12T14:29:28.727Z,10.14
2024-02-12T14:32:36.948Z,10.15
2024-02-12T14:34:47.087Z,10.14
2024-02-12T14:37:17.442Z,10.14
2024-02-12T14:39:45.704Z,10.13
2024-02-12T14:42:13.515Z,10.12
2024-02-12T14:44:41.377Z,10.10
2024-02-12T14:47:09.306Z,10.07
2024-02-12T14:49:37.335Z,10.06
2024-02-12T14:52:08.226Z,10.04
2024-02-12T14:54:36.337Z,10.02
2024-02-12T14:57:05.115Z,10.00
2024-02-12T14:59:32.920Z,9.98
2024-02-12T15:02:01.082Z,9.97
2024-02-12T15:04:29.648Z,9.95
2024-02-12T15:07:10.682Z,9.92
2024-02-12T15:09:48.144Z,9.89
2024-02-12T15:12:22.976Z,9.87
2024-02-12T15:14:51.833Z,9.84
2024-02-12T15:17:20.164Z,9.82
2024-02-12T15:19:49.622Z,9.79
2024-02-12T15:22:23.177Z,9.77
2024-02-12T15:24:51.624Z,9.76
2024-02-12T15:27:19.611Z,9.74
2024-02-12T15:29:50.182Z,9.71
2024-02-12T15:32:18.068Z,9.70
2024-02-12T15:34:47.069Z,9.67
2024-02-12T15:37:19.339Z,9.65
2024-02-12T15:39:58.783Z,9.63
2024-02-12T15:42:27.978Z,9.61
2024-02-12T15:44:56.586Z,9.58
2024-02-12T15:47:25.444Z,9.57
2024-02-12T15:49:55.557Z,9.56
2024-02-12T15:52:26.836Z,9.54
2024-02-12T15:54:55.027Z,9.52
2024-02-12T15:57:25.966Z,9.49
2024-02-12T15:59:53.982Z,9.47
2024-02-12T16:02:21.962Z,9.46
2024-02-12T16:04:49.904Z,9.44
2024-02-12T16:07:22.409Z,9.43
2024-02-12T16:09:50.365Z,9.42
2024-02-12T16:12:18.318Z,9.40
2024-02-12T16:14:49.760Z,9.38
2024-02-12T16:17:19.125Z,9.36
2024-02-12T16:19:50.372Z,9.35
2024-02-12T16:22:18.962Z,9.33
2024-02-12T16:24:49.856Z,9.31
2024-02-12T16:27:18.123Z,9.31
2024-02-12T16:29:48.374Z,9.29
2024-02-12T16:32:19.652Z,9.27
2024-02-12T16:34:49.933Z,9.25
2024-02-12T16:37:18.734Z,9.24
2024-02-12T16:39:51.555Z,9.22
2024-02-12T16:42:20.113Z,9.21
2024-02-12T16:44:48.762Z,9.20
2024-02-12T16:47:18.887Z,9.18
2024-02-12T16:49:47.553Z,9.17
2024-02-12T16:52:18.082Z,9.17
2024-02-12T16:54:46.210Z,9.15
2024-02-12T16:57:14.557Z,9.13
2024-02-12T17:17:20.469Z,9.03
2024-02-12T17:19:59.334Z,9.02
2024-02-12T17:22:29.142Z,9.01
2024-02-12T17:24:58.849Z,8.99
2024-02-12T17:27:30.009Z,8.98
2024-02-12T17:30:05.621Z,8.96
2024-02-12T17:32:40.721Z,8.95
2024-02-12T17:35:12.576Z,8.93
2024-02-12T17:37:43.023Z,8.92
2024-02-12T17:40:12.605Z,8.92
2024-02-12T17:42:40.519Z,8.92
2024-02-12T17:45:11.349Z,8.91
2024-02-12T17:47:42.400Z,8.91
2024-02-12T17:50:11.189Z,8.91
2024-02-12T17:52:39.268Z,8.91
2024-02-12T17:55:07.560Z,8.91
2024-02-12T17:57:36.070Z,8.91
2024-02-12T18:00:05.311Z,8.90
2024-02-12T18:02:33.370Z,8.89
2024-02-12T18:05:01.377Z,8.88
2024-02-12T18:07:29.336Z,8.88
2024-02-12T18:09:57.130Z,8.88
2024-02-12T18:12:24.941Z,8.88
2024-02-12T18:14:52.831Z,8.87
2024-02-12T18:17:25.441Z,8.86
2024-02-12T18:19:57.569Z,8.86
2024-02-12T18:22:25.713Z,8.86
2024-02-12T18:24:53.888Z,8.85
2024-02-12T18:27:22.109Z,8.85
2024-02-12T18:30:07.210Z,8.85
2024-02-12T18:37:09.359Z,8.85
2024-02-12T18:40:28.374Z,8.86
2024-02-12T18:42:53.020Z,8.86
2024-02-12T18:45:28.292Z,8.86
2024-02-12T18:48:00.810Z,8.86
2024-02-12T18:50:33.204Z,8.86
2024-02-12T18:53:11.539Z,8.86
2024-02-12T18:55:50.782Z,8.86
2024-02-12T18:58:28.016Z,8.86
2024-02-12T19:00:57.502Z,8.86
2024-02-12T19:03:51.611Z,8.85
2024-02-12T19:06:45.819Z,8.84
2024-02-12T19:09:16.590Z,8.82
2024-02-12T19:11:55.528Z,8.81
2024-02-12T19:14:33.395Z,8.80
2024-02-12T19:17:02.639Z,8.78
2024-02-12T19:19:35.884Z,8.77
2024-02-12T19:22:07.010Z,8.75
2024-02-12T19:24:35.811Z,8.74
2024-02-12T19:27:28.241Z,8.74
2024-02-12T19:30:16.749Z,8.73
2024-02-12T19:33:02.808Z,8.74
2024-02-12T19:38:50.088Z,8.73
2024-02-12T19:41:18.333Z,8.73
2024-02-12T19:43:49.601Z,8.73
2024-02-12T19:46:33.340Z,8.73
2024-02-12T19:49:15.125Z,8.72
2024-02-12T19:51:50.259Z,8.73
2024-02-12T19:54:18.087Z,8.72
2024-02-12T19:56:46.351Z,8.72
2024-02-12T19:59:14.326Z,8.72
2024-02-12T20:01:43.639Z,8.71
2024-02-12T20:04:11.510Z,8.72
2024-02-12T20:06:39.569Z,8.71
2024-02-12T20:09:09.206Z,8.70
2024-02-12T20:11:37.460Z,8.70
2024-02-12T20:14:06.227Z,8.69
2024-02-12T20:16:34.100Z,8.69
2024-02-12T20:19:02.166Z,8.70
2024-02-12T20:21:30.052Z,8.69
2024-02-12T20:23:59.124Z,8.69
2024-02-12T20:26:27.054Z,8.70
2024-02-12T20:28:54.875Z,8.69
2024-02-12T20:31:22.750Z,8.68
2024-02-12T20:33:50.776Z,8.67
2024-02-12T20:36:18.683Z,8.65
2024-02-12T20:38:46.571Z,8.64
2024-02-12T20:41:21.803Z,8.64
2024-02-12T20:43:49.759Z,8.63
2024-02-12T20:46:17.626Z,8.62
2024-02-12T20:48:46.194Z,8.62
2024-02-12T20:51:14.504Z,8.61
2024-02-12T20:53:42.511Z,8.61
2024-02-12T20:56:10.533Z,8.61
2024-02-12T20:58:38.364Z,8.60
2024-02-12T21:01:06.320Z,8.61
2024-02-12T21:03:34.177Z,8.59
2024-02-12T21:06:02.338Z,8.59
2024-02-12T21:08:30.287Z,8.59
2024-02-12T21:10:58.101Z,8.58
2024-02-12T21:13:26.027Z,8.57
2024-02-12T21:15:57.863Z,8.55
2024-02-12T21:18:25.740Z,8.53
2024-02-12T21:20:53.711Z,8.52
2024-02-12T21:23:24.293Z,8.50
2024-02-12T21:25:52.221Z,8.49
2024-02-12T21:28:20.149Z,8.48
2024-02-12T21:30:48.005Z,8.46
2024-02-12T21:33:16.398Z,8.45
2024-02-12T21:35:44.613Z,8.42
2024-02-12T21:38:13.205Z,8.41
2024-02-12T21:40:43.279Z,8.40
2024-02-12T21:43:11.242Z,8.38
2024-02-12T21:45:39.137Z,8.35
2024-02-12T21:48:08.151Z,8.34
2024-02-12T21:50:38.057Z,8.33
2024-02-12T21:53:09.960Z,8.31
2024-02-12T21:55:37.912Z,8.30
2024-02-12T21:58:08.168Z,8.29
2024-02-12T22:00:36.049Z,8.27
2024-02-12T22:03:05.579Z,8.25
2024-02-12T22:05:34.005Z,8.25
2024-02-12T22:08:02.006Z,8.24
2024-02-12T22:10:30.637Z,8.23
2024-02-12T22:12:58.751Z,8.22
2024-02-12T22:15:27.597Z,8.21
2024-02-12T22:17:55.688Z,8.20
2024-02-12T22:20:23.674Z,8.19
2024-02-12T22:22:53.349Z,8.18
2024-02-12T22:25:22.052Z,8.17
2024-02-12T22:27:49.869Z,8.16
2024-02-12T22:30:17.824Z,8.16
2024-02-12T22:32:45.735Z,8.15
2024-02-12T22:35:13.676Z,8.15
2024-02-12T22:37:42.255Z,8.15
2024-02-12T22:40:10.647Z,8.16
2024-02-12T22:42:39.970Z,8.16
2024-02-12T22:45:08.252Z,8.16
2024-02-12T22:47:36.330Z,8.17
2024-02-12T22:50:07.289Z,8.16
2024-02-12T22:52:35.186Z,8.16
2024-02-12T22:55:03.779Z,8.17
2024-02-12T22:57:32.162Z,8.17
2024-02-12T23:00:00.025Z,8.17
2024-02-12T23:02:28.023Z,8.17
2024-02-12T23:04:57.411Z,8.17
2024-02-12T23:07:27.830Z,8.17
2024-02-12T23:09:56.416Z,8.17
2024-02-12T23:12:28.259Z,8.17
2024-02-12T23:14:56.644Z,8.18
2024-02-12T23:17:25.691Z,8.18
2024-02-12T23:19:58.492Z,8.17
2024-02-12T23:22:26.474Z,8.17
2024-02-12T23:24:54.352Z,8.16
2024-02-12T23:27:22.294Z,8.15
2024-02-12T23:29:50.159Z,8.15
2024-02-12T23:32:18.439Z,8.14
2024-02-12T23:34:46.548Z,8.12
2024-02-12T23:37:14.496Z,8.11
2024-02-12T23:39:42.372Z,8.11
2024-02-12T23:42:10.215Z,8.10
2024-02-12T23:44:38.060Z,8.09
2024-02-12T23:47:07.476Z,8.09
2024-02-12T23:49:35.328Z,8.08
2024-02-12T23:52:07.357Z,8.06
2024-02-12T23:54:35.161Z,8.05
2024-02-12T23:57:03.207Z,8.04
2024-02-12T23:59:31.155Z,8.02
